CheckWX is a tool to help pilots better visualize weather data.  It is not intended as a substitute for an official pre-flight weather briefing.

08:11:35 UTC

KCRQ TAF
Mc Clellan-Palomar Airport
Carlsbad, California, USA
KCRQ 210525Z 2106/2206 10003KT P6SM SKC FM211900 28007KT P6SM SKC FM220200 VRB05KT P6SM SKC

Oct-21@
06:00 UTC

Oct-21 @ 06:00 UTC

Oct-21@
19:00 UTC

Oct-21 @ 19:00 UTC

KCRQ 210525Z 2106/2206 10003KT P6SM SKC
Wind
  • 100° at 3 KTS
Cloud Levels
  • Clear skies

Oct-21@
19:00 UTC

Oct-21 @ 19:00 UTC

Oct-22@
02:00 UTC

Oct-22 @ 02:00 UTC

FM211900 28007KT P6SM SKC

From

From Standard forecast or significant change

Wind
  • 280° at 7 KTS
Cloud Levels
  • Clear skies

Oct-22@
02:00 UTC

Oct-22 @ 02:00 UTC

Oct-22@
06:00 UTC

Oct-22 @ 06:00 UTC

FM220200 VRB05KT P6SM SKC

From

From Standard forecast or significant change

Wind
  • Variable at 5 KTS
Cloud Levels
  • Clear skies